sensor_id;sensor_type;location;lat;lon;timestamp;temperature;humidity
306;DHT22;137;48.578;9.180;2022-08-18T00:02:01;20.20;98.20
306;DHT22;137;48.578;9.180;2022-08-18T00:04:28;20.10;98.20
306;DHT22;137;48.578;9.180;2022-08-18T00:06:56;20.10;98.20
306;DHT22;137;48.578;9.180;2022-08-18T00:09:23;20.00;98.20
306;DHT22;137;48.578;9.180;2022-08-18T00:11:50;20.00;98.20
306;DHT22;137;48.578;9.180;2022-08-18T00:14:19;20.00;98.20
306;DHT22;137;48.578;9.180;2022-08-18T00:16:47;20.10;98.20
306;DHT22;137;48.578;9.180;2022-08-18T00:19:15;20.10;98.20
306;DHT22;137;48.578;9.180;2022-08-18T00:21:42;20.10;98.20
306;DHT22;137;48.578;9.180;2022-08-18T00:24:09;20.10;98.20
306;DHT22;137;48.578;9.180;2022-08-18T00:26:36;20.00;98.20
306;DHT22;137;48.578;9.180;2022-08-18T00:29:03;20.00;98.20
306;DHT22;137;48.578;9.180;2022-08-18T00:31:30;20.00;98.20
306;DHT22;137;48.578;9.180;2022-08-18T00:33:57;19.90;98.20
306;DHT22;137;48.578;9.180;2022-08-18T00:36:26;19.80;98.20
306;DHT22;137;48.578;9.180;2022-08-18T00:38:53;19.80;98.20
306;DHT22;137;48.578;9.180;2022-08-18T00:41:20;19.80;98.20
306;DHT22;137;48.578;9.180;2022-08-18T00:43:51;19.90;98.20
306;DHT22;137;48.578;9.180;2022-08-18T00:46:21;20.00;98.20
306;DHT22;137;48.578;9.180;2022-08-18T00:48:50;20.00;98.20
306;DHT22;137;48.578;9.180;2022-08-18T00:51:22;20.00;98.20
306;DHT22;137;48.578;9.180;2022-08-18T00:53:55;20.10;98.20
306;DHT22;137;48.578;9.180;2022-08-18T00:56:27;20.10;98.20
306;DHT22;137;48.578;9.180;2022-08-18T00:59:01;20.00;98.20
306;DHT22;137;48.578;9.180;2022-08-18T01:01:30;20.00;98.20
306;DHT22;137;48.578;9.180;2022-08-18T01:04:02;20.00;98.20
306;DHT22;137;48.578;9.180;2022-08-18T01:06:35;20.00;98.20
306;DHT22;137;48.578;9.180;2022-08-18T01:09:05;20.00;98.20
306;DHT22;137;48.578;9.180;2022-08-18T01:11:33;20.10;98.20
306;DHT22;137;48.578;9.180;2022-08-18T01:14:01;20.10;98.20
306;DHT22;137;48.578;9.180;2022-08-18T01:16:28;20.10;98.20
306;DHT22;137;48.578;9.180;2022-08-18T01:19:12;20.10;98.20
306;DHT22;137;48.578;9.180;2022-08-18T01:22:01;20.10;98.20
306;DHT22;137;48.578;9.180;2022-08-18T01:24:34;20.10;98.20
306;DHT22;137;48.578;9.180;2022-08-18T01:27:19;20.00;98.20
306;DHT22;137;48.578;9.180;2022-08-18T01:29:47;20.00;98.20
306;DHT22;137;48.578;9.180;2022-08-18T01:32:15;19.70;98.20
306;DHT22;137;48.578;9.180;2022-08-18T01:34:45;19.50;98.20
306;DHT22;137;48.578;9.180;2022-08-18T01:37:14;19.50;98.20
306;DHT22;137;48.578;9.180;2022-08-18T01:39:43;19.50;98.20
306;DHT22;137;48.578;9.180;2022-08-18T01:42:10;19.50;98.20
306;DHT22;137;48.578;9.180;2022-08-18T01:44:37;19.50;98.20
306;DHT22;137;48.578;9.180;2022-08-18T01:47:05;19.30;98.20
306;DHT22;137;48.578;9.180;2022-08-18T01:49:31;19.10;98.20
306;DHT22;137;48.578;9.180;2022-08-18T01:51:58;19.00;98.20
306;DHT22;137;48.578;9.180;2022-08-18T01:54:25;19.00;98.20
306;DHT22;137;48.578;9.180;2022-08-18T01:56:56;19.00;98.20
306;DHT22;137;48.578;9.180;2022-08-18T01:59:23;19.00;98.20
306;DHT22;137;48.578;9.180;2022-08-18T02:01:50;19.00;98.20
306;DHT22;137;48.578;9.180;2022-08-18T02:04:23;19.00;98.20
306;DHT22;137;48.578;9.180;2022-08-18T02:06:52;19.00;98.20
306;DHT22;137;48.578;9.180;2022-08-18T02:09:18;19.10;98.20
306;DHT22;137;48.578;9.180;2022-08-18T02:11:45;19.20;98.20
306;DHT22;137;48.578;9.180;2022-08-18T02:14:13;19.20;98.20
306;DHT22;137;48.578;9.180;2022-08-18T02:16:40;19.20;98.20
306;DHT22;137;48.578;9.180;2022-08-18T02:19:07;19.20;98.20
306;DHT22;137;48.578;9.180;2022-08-18T02:21:34;19.20;98.20
306;DHT22;137;48.578;9.180;2022-08-18T02:24:01;19.20;98.20
306;DHT22;137;48.578;9.180;2022-08-18T02:26:28;19.20;98.20
306;DHT22;137;48.578;9.180;2022-08-18T02:28:55;19.30;98.20
306;DHT22;137;48.578;9.180;2022-08-18T02:31:24;19.30;98.20
306;DHT22;137;48.578;9.180;2022-08-18T02:33:51;19.30;98.20
306;DHT22;137;48.578;9.180;2022-08-18T02:36:19;19.30;98.20
306;DHT22;137;48.578;9.180;2022-08-18T02:38:46;19.30;98.20
306;DHT22;137;48.578;9.180;2022-08-18T02:41:13;19.30;98.20
306;DHT22;137;48.578;9.180;2022-08-18T02:43:41;19.20;98.20
306;DHT22;137;48.578;9.180;2022-08-18T02:46:09;19.10;98.20
306;DHT22;137;48.578;9.180;2022-08-18T02:48:37;19.20;98.20
306;DHT22;137;48.578;9.180;2022-08-18T02:51:05;19.10;98.20
306;DHT22;137;48.578;9.180;2022-08-18T02:53:34;19.00;98.20
306;DHT22;137;48.578;9.180;2022-08-18T02:56:07;18.90;98.20
306;DHT22;137;48.578;9.180;2022-08-18T02:58:46;18.90;98.20
306;DHT22;137;48.578;9.180;2022-08-18T03:01:13;18.80;98.20
306;DHT22;137;48.578;9.180;2022-08-18T03:03:41;18.70;98.20
306;DHT22;137;48.578;9.180;2022-08-18T03:06:08;18.60;98.20
306;DHT22;137;48.578;9.180;2022-08-18T03:08:34;18.40;98.20
306;DHT22;137;48.578;9.180;2022-08-18T03:11:01;18.40;98.20
306;DHT22;137;48.578;9.180;2022-08-18T03:13:28;18.40;98.20
306;DHT22;137;48.578;9.180;2022-08-18T03:15:55;18.40;98.20
306;DHT22;137;48.578;9.180;2022-08-18T03:18:22;18.40;98.20
306;DHT22;137;48.578;9.180;2022-08-18T03:20:50;18.30;98.20
306;DHT22;137;48.578;9.180;2022-08-18T03:23:17;18.40;98.20
306;DHT22;137;48.578;9.180;2022-08-18T03:25:46;18.50;98.20
306;DHT22;137;48.578;9.180;2022-08-18T03:28:14;18.50;98.20
306;DHT22;137;48.578;9.180;2022-08-18T03:30:41;18.40;98.20
306;DHT22;137;48.578;9.180;2022-08-18T03:33:09;18.50;98.20
306;DHT22;137;48.578;9.180;2022-08-18T03:35:36;18.50;98.20
306;DHT22;137;48.578;9.180;2022-08-18T03:38:04;18.60;98.20
306;DHT22;137;48.578;9.180;2022-08-18T03:40:31;18.60;98.20
306;DHT22;137;48.578;9.180;2022-08-18T03:43:01;18.60;98.20
306;DHT22;137;48.578;9.180;2022-08-18T03:45:31;18.60;98.20
306;DHT22;137;48.578;9.180;2022-08-18T03:47:59;18.60;98.20
306;DHT22;137;48.578;9.180;2022-08-18T03:50:26;18.70;98.20
306;DHT22;137;48.578;9.180;2022-08-18T03:52:54;18.70;98.20
306;DHT22;137;48.578;9.180;2022-08-18T03:55:25;18.70;98.20
306;DHT22;137;48.578;9.180;2022-08-18T03:57:57;18.70;98.20
306;DHT22;137;48.578;9.180;2022-08-18T04:00:26;18.70;98.20
306;DHT22;137;48.578;9.180;2022-08-18T04:02:53;18.70;98.20
306;DHT22;137;48.578;9.180;2022-08-18T04:05:20;18.70;98.20
306;DHT22;137;48.578;9.180;2022-08-18T04:07:46;18.80;98.20
306;DHT22;137;48.578;9.180;2022-08-18T04:10:13;18.80;98.20
306;DHT22;137;48.578;9.180;2022-08-18T04:12:42;18.80;98.20
306;DHT22;137;48.578;9.180;2022-08-18T04:15:10;18.80;98.20
306;DHT22;137;48.578;9.180;2022-08-18T04:17:37;18.70;98.20
306;DHT22;137;48.578;9.180;2022-08-18T04:20:04;18.70;98.20
306;DHT22;137;48.578;9.180;2022-08-18T04:22:32;18.70;98.20
306;DHT22;137;48.578;9.180;2022-08-18T04:24:59;18.70;98.20
306;DHT22;137;48.578;9.180;2022-08-18T04:27:27;18.60;98.20
306;DHT22;137;48.578;9.180;2022-08-18T04:29:56;18.60;98.20
306;DHT22;137;48.578;9.180;2022-08-18T04:32:23;18.60;98.20
306;DHT22;137;48.578;9.180;2022-08-18T04:34:50;18.60;98.20
306;DHT22;137;48.578;9.180;2022-08-18T04:37:17;18.60;98.20
306;DHT22;137;48.578;9.180;2022-08-18T04:39:44;18.70;98.20
306;DHT22;137;48.578;9.180;2022-08-18T04:42:11;18.70;98.20
306;DHT22;137;48.578;9.180;2022-08-18T04:44:38;18.60;98.20
306;DHT22;137;48.578;9.180;2022-08-18T04:47:07;18.60;98.20
306;DHT22;137;48.578;9.180;2022-08-18T04:49:35;18.70;98.20
306;DHT22;137;48.578;9.180;2022-08-18T04:52:04;18.80;98.20
306;DHT22;137;48.578;9.180;2022-08-18T04:54:49;18.90;98.20
306;DHT22;137;48.578;9.180;2022-08-18T04:57:17;19.10;98.20
306;DHT22;137;48.578;9.180;2022-08-18T04:59:47;19.20;98.20
306;DHT22;137;48.578;9.180;2022-08-18T05:02:19;19.30;98.20
306;DHT22;137;48.578;9.180;2022-08-18T05:04:46;19.30;98.20
306;DHT22;137;48.578;9.180;2022-08-18T05:07:15;19.40;98.20
306;DHT22;137;48.578;9.180;2022-08-18T05:09:43;19.50;98.20
306;DHT22;137;48.578;9.180;2022-08-18T05:12:12;19.50;98.20
306;DHT22;137;48.578;9.180;2022-08-18T05:14:39;19.60;98.20
306;DHT22;137;48.578;9.180;2022-08-18T05:17:06;19.70;98.20
306;DHT22;137;48.578;9.180;2022-08-18T05:19:34;19.70;98.20
306;DHT22;137;48.578;9.180;2022-08-18T05:22:02;19.60;98.20
306;DHT22;137;48.578;9.180;2022-08-18T05:24:30;19.70;98.20
306;DHT22;137;48.578;9.180;2022-08-18T05:27:00;19.70;98.20
306;DHT22;137;48.578;9.180;2022-08-18T05:29:28;19.90;98.20
306;DHT22;137;48.578;9.180;2022-08-18T05:32:00;19.90;98.20
306;DHT22;137;48.578;9.180;2022-08-18T05:34:29;20.00;98.20
306;DHT22;137;48.578;9.180;2022-08-18T05:37:08;20.10;98.20
306;DHT22;137;48.578;9.180;2022-08-18T05:39:44;20.20;98.20
306;DHT22;137;48.578;9.180;2022-08-18T05:42:19;20.10;98.20
306;DHT22;137;48.578;9.180;2022-08-18T05:44:49;20.00;98.20
306;DHT22;137;48.578;9.180;2022-08-18T05:47:20;19.90;98.20
306;DHT22;137;48.578;9.180;2022-08-18T05:49:48;19.90;98.20
306;DHT22;137;48.578;9.180;2022-08-18T05:52:19;19.90;98.20
306;DHT22;137;48.578;9.180;2022-08-18T05:54:50;20.00;98.20
306;DHT22;137;48.578;9.180;2022-08-18T05:57:40;20.10;98.20
306;DHT22;137;48.578;9.180;2022-08-18T06:00:09;20.20;98.20
306;DHT22;137;48.578;9.180;2022-08-18T06:02:41;20.20;98.20
306;DHT22;137;48.578;9.180;2022-08-18T06:05:13;20.30;98.20
306;DHT22;137;48.578;9.180;2022-08-18T06:07:44;20.50;98.20
306;DHT22;137;48.578;9.180;2022-08-18T06:10:15;20.60;98.20
306;DHT22;137;48.578;9.180;2022-08-18T06:12:44;20.70;98.20
306;DHT22;137;48.578;9.180;2022-08-18T06:15:15;20.70;98.20
306;DHT22;137;48.578;9.180;2022-08-18T06:18:00;20.80;98.20
306;DHT22;137;48.578;9.180;2022-08-18T06:20:34;20.90;98.20
306;DHT22;137;48.578;9.180;2022-08-18T06:23:17;21.10;98.20
306;DHT22;137;48.578;9.180;2022-08-18T06:25:56;21.20;98.20
306;DHT22;137;48.578;9.180;2022-08-18T06:28:35;21.30;98.20
306;DHT22;137;48.578;9.180;2022-08-18T06:31:14;21.50;98.20
306;DHT22;137;48.578;9.180;2022-08-18T06:33:50;21.50;98.20
306;DHT22;137;48.578;9.180;2022-08-18T06:36:26;21.40;98.20
306;DHT22;137;48.578;9.180;2022-08-18T06:39:04;21.40;98.20
306;DHT22;137;48.578;9.180;2022-08-18T06:41:35;21.50;98.20
306;DHT22;137;48.578;9.180;2022-08-18T06:44:07;21.50;98.20
306;DHT22;137;48.578;9.180;2022-08-18T06:46:40;21.50;98.20
306;DHT22;137;48.578;9.180;2022-08-18T06:49:09;21.50;98.20
306;DHT22;137;48.578;9.180;2022-08-18T06:51:36;21.60;98.20
306;DHT22;137;48.578;9.180;2022-08-18T06:54:06;21.70;98.20
306;DHT22;137;48.578;9.180;2022-08-18T06:56:46;21.90;98.20
306;DHT22;137;48.578;9.180;2022-08-18T06:59:17;22.00;98.20
306;DHT22;137;48.578;9.180;2022-08-18T07:01:47;22.20;98.20
306;DHT22;137;48.578;9.180;2022-08-18T07:04:35;22.20;98.20
306;DHT22;137;48.578;9.180;2022-08-18T07:07:18;22.30;98.20
306;DHT22;137;48.578;9.180;2022-08-18T07:09:47;22.40;98.20
306;DHT22;137;48.578;9.180;2022-08-18T07:12:20;22.50;98.20
306;DHT22;137;48.578;9.180;2022-08-18T07:14:50;22.30;98.20
306;DHT22;137;48.578;9.180;2022-08-18T07:17:23;22.30;98.20
306;DHT22;137;48.578;9.180;2022-08-18T07:20:00;22.20;98.20
306;DHT22;137;48.578;9.180;2022-08-18T07:22:28;21.90;98.20
306;DHT22;137;48.578;9.180;2022-08-18T07:24:59;21.70;98.20
306;DHT22;137;48.578;9.180;2022-08-18T07:27:45;21.50;98.20
306;DHT22;137;48.578;9.180;2022-08-18T07:30:27;21.50;98.20
306;DHT22;137;48.578;9.180;2022-08-18T07:33:00;21.50;98.20
306;DHT22;137;48.578;9.180;2022-08-18T07:35:33;21.60;98.20
306;DHT22;137;48.578;9.180;2022-08-18T07:38:08;21.70;98.20
306;DHT22;137;48.578;9.180;2022-08-18T07:40:46;21.70;98.20
306;DHT22;137;48.578;9.180;2022-08-18T07:43:20;21.60;98.20
306;DHT22;137;48.578;9.180;2022-08-18T07:45:47;21.40;98.20
306;DHT22;137;48.578;9.180;2022-08-18T07:48:16;21.30;98.20
306;DHT22;137;48.578;9.180;2022-08-18T07:50:47;21.30;98.20
306;DHT22;137;48.578;9.180;2022-08-18T07:53:29;21.20;98.20
306;DHT22;137;48.578;9.180;2022-08-18T07:56:04;21.10;98.20
306;DHT22;137;48.578;9.180;2022-08-18T07:58:36;21.10;98.20
306;DHT22;137;48.578;9.180;2022-08-18T08:01:12;21.10;98.20
306;DHT22;137;48.578;9.180;2022-08-18T08:03:48;21.40;98.20
306;DHT22;137;48.578;9.180;2022-08-18T08:06:20;21.50;98.20
306;DHT22;137;48.578;9.180;2022-08-18T08:08:56;21.70;98.20
306;DHT22;137;48.578;9.180;2022-08-18T08:11:38;21.70;98.20
306;DHT22;137;48.578;9.180;2022-08-18T08:14:20;21.80;98.20
306;DHT22;137;48.578;9.180;2022-08-18T08:16:58;21.80;98.20
306;DHT22;137;48.578;9.180;2022-08-18T08:19:50;21.70;98.20
306;DHT22;137;48.578;9.180;2022-08-18T08:22:21;21.80;98.20
306;DHT22;137;48.578;9.180;2022-08-18T08:25:02;22.00;98.20
306;DHT22;137;48.578;9.180;2022-08-18T08:27:38;22.40;98.20
306;DHT22;137;48.578;9.180;2022-08-18T08:30:09;22.80;98.20
306;DHT22;137;48.578;9.180;2022-08-18T08:32:45;23.00;98.20
306;DHT22;137;48.578;9.180;2022-08-18T08:35:22;23.20;98.20
306;DHT22;137;48.578;9.180;2022-08-18T08:37:55;23.50;98.20
306;DHT22;137;48.578;9.180;2022-08-18T08:40:25;23.60;98.20
306;DHT22;137;48.578;9.180;2022-08-18T08:42:57;23.70;98.20
306;DHT22;137;48.578;9.180;2022-08-18T08:45:29;23.60;98.20
306;DHT22;137;48.578;9.180;2022-08-18T08:48:01;23.30;98.20
306;DHT22;137;48.578;9.180;2022-08-18T08:50:33;23.10;98.20
306;DHT22;137;48.578;9.180;2022-08-18T08:53:06;22.70;98.20
306;DHT22;137;48.578;9.180;2022-08-18T08:55:42;22.80;98.20
306;DHT22;137;48.578;9.180;2022-08-18T08:58:18;23.00;98.20
306;DHT22;137;48.578;9.180;2022-08-18T09:00:46;23.30;98.20
306;DHT22;137;48.578;9.180;2022-08-18T09:03:25;23.90;98.20
306;DHT22;137;48.578;9.180;2022-08-18T09:06:15;24.40;98.20
306;DHT22;137;48.578;9.180;2022-08-18T09:09:01;24.50;98.20
306;DHT22;137;48.578;9.180;2022-08-18T09:11:50;24.40;98.20
306;DHT22;137;48.578;9.180;2022-08-18T09:14:43;24.30;98.20
306;DHT22;137;48.578;9.180;2022-08-18T09:17:25;24.40;98.20
306;DHT22;137;48.578;9.180;2022-08-18T09:20:14;24.80;98.20
306;DHT22;137;48.578;9.180;2022-08-18T09:22:51;24.60;98.20
306;DHT22;137;48.578;9.180;2022-08-18T09:25:32;24.80;98.20
306;DHT22;137;48.578;9.180;2022-08-18T09:28:11;25.00;98.20
306;DHT22;137;48.578;9.180;2022-08-18T09:30:45;24.90;98.20
306;DHT22;137;48.578;9.180;2022-08-18T09:33:19;25.00;98.20
306;DHT22;137;48.578;9.180;2022-08-18T09:36:13;25.00;98.20
306;DHT22;137;48.578;9.180;2022-08-18T09:38:50;25.20;98.20
306;DHT22;137;48.578;9.180;2022-08-18T09:41:51;24.90;98.20
306;DHT22;137;48.578;9.180;2022-08-18T09:53:33;25.50;98.20
306;DHT22;137;48.578;9.180;2022-08-18T09:56:04;25.80;98.20
306;DHT22;137;48.578;9.180;2022-08-18T09:58:55;26.10;98.20
306;DHT22;137;48.578;9.180;2022-08-18T10:01:35;26.60;98.20
306;DHT22;137;48.578;9.180;2022-08-18T10:04:18;27.00;98.20
306;DHT22;137;48.578;9.180;2022-08-18T10:06:50;27.20;98.20
306;DHT22;137;48.578;9.180;2022-08-18T10:09:34;27.40;98.20
306;DHT22;137;48.578;9.180;2022-08-18T10:12:30;27.40;98.20
306;DHT22;137;48.578;9.180;2022-08-18T10:15:28;27.90;98.20
306;DHT22;137;48.578;9.180;2022-08-18T10:18:32;28.30;98.20
306;DHT22;137;48.578;9.180;2022-08-18T10:21:08;28.30;98.20
306;DHT22;137;48.578;9.180;2022-08-18T10:23:53;28.10;98.20
306;DHT22;137;48.578;9.180;2022-08-18T10:38:39;27.80;98.20
306;DHT22;137;48.578;9.180;2022-08-18T10:41:12;28.00;98.20
306;DHT22;137;48.578;9.180;2022-08-18T10:43:46;27.70;98.20
306;DHT22;137;48.578;9.180;2022-08-18T10:46:16;27.50;98.20
306;DHT22;137;48.578;9.180;2022-08-18T10:48:57;27.10;98.20
306;DHT22;137;48.578;9.180;2022-08-18T10:51:28;27.10;98.20
306;DHT22;137;48.578;9.180;2022-08-18T10:54:05;27.10;98.20
306;DHT22;137;48.578;9.180;2022-08-18T10:56:51;27.40;98.20
306;DHT22;137;48.578;9.180;2022-08-18T10:59:25;27.10;98.20
306;DHT22;137;48.578;9.180;2022-08-18T11:02:02;26.90;98.20
306;DHT22;137;48.578;9.180;2022-08-18T11:04:35;26.50;98.20
306;DHT22;137;48.578;9.180;2022-08-18T11:07:05;26.20;98.20
306;DHT22;137;48.578;9.180;2022-08-18T11:09:36;26.50;98.20
306;DHT22;137;48.578;9.180;2022-08-18T11:12:03;26.60;98.20
306;DHT22;137;48.578;9.180;2022-08-18T11:14:55;26.50;98.20
306;DHT22;137;48.578;9.180;2022-08-18T11:17:34;26.60;98.20
306;DHT22;137;48.578;9.180;2022-08-18T11:20:07;27.00;98.20
306;DHT22;137;48.578;9.180;2022-08-18T11:22:35;27.10;98.20
306;DHT22;137;48.578;9.180;2022-08-18T11:25:19;27.40;98.20
306;DHT22;137;48.578;9.180;2022-08-18T11:27:48;27.90;98.20
306;DHT22;137;48.578;9.180;2022-08-18T11:30:15;27.90;98.20
306;DHT22;137;48.578;9.180;2022-08-18T11:32:42;27.70;98.20
306;DHT22;137;48.578;9.180;2022-08-18T11:35:12;27.50;98.20
306;DHT22;137;48.578;9.180;2022-08-18T11:37:44;27.50;98.20
306;DHT22;137;48.578;9.180;2022-08-18T11:40:29;27.70;98.20
306;DHT22;137;48.578;9.180;2022-08-18T11:43:03;28.10;98.20
306;DHT22;137;48.578;9.180;2022-08-18T11:45:33;28.10;98.20
306;DHT22;137;48.578;9.180;2022-08-18T11:48:10;28.40;98.20
306;DHT22;137;48.578;9.180;2022-08-18T11:50:46;28.70;98.20
306;DHT22;137;48.578;9.180;2022-08-18T11:53:21;28.60;98.20
306;DHT22;137;48.578;9.180;2022-08-18T11:56:19;28.10;98.20
306;DHT22;137;48.578;9.180;2022-08-18T11:58:50;28.00;98.20
306;DHT22;137;48.578;9.180;2022-08-18T12:01:33;27.80;98.20
306;DHT22;137;48.578;9.180;2022-08-18T12:04:25;27.80;98.20
306;DHT22;137;48.578;9.180;2022-08-18T12:06:58;27.70;98.20
306;DHT22;137;48.578;9.180;2022-08-18T12:09:33;27.70;98.20
306;DHT22;137;48.578;9.180;2022-08-18T12:12:04;27.60;98.20
306;DHT22;137;48.578;9.180;2022-08-18T12:14:42;27.70;98.20
306;DHT22;137;48.578;9.180;2022-08-18T12:17:16;27.40;98.20
306;DHT22;137;48.578;9.180;2022-08-18T12:19:43;27.70;98.20
306;DHT22;137;48.578;9.180;2022-08-18T12:22:14;27.70;98.20
306;DHT22;137;48.578;9.180;2022-08-18T12:24:41;27.60;98.20
306;DHT22;137;48.578;9.180;2022-08-18T12:27:09;27.60;98.20
306;DHT22;137;48.578;9.180;2022-08-18T12:29:36;27.30;98.20
306;DHT22;137;48.578;9.180;2022-08-18T12:32:03;27.10;98.20
306;DHT22;137;48.578;9.180;2022-08-18T12:34:30;27.00;98.20
306;DHT22;137;48.578;9.180;2022-08-18T12:36:58;27.00;98.20
306;DHT22;137;48.578;9.180;2022-08-18T12:39:26;27.10;98.20
306;DHT22;137;48.578;9.180;2022-08-18T12:41:53;27.10;98.20
306;DHT22;137;48.578;9.180;2022-08-18T12:44:22;27.10;98.20
306;DHT22;137;48.578;9.180;2022-08-18T12:46:49;27.30;98.20
306;DHT22;137;48.578;9.180;2022-08-18T12:49:18;27.30;98.20
306;DHT22;137;48.578;9.180;2022-08-18T12:51:46;27.00;98.20
306;DHT22;137;48.578;9.180;2022-08-18T12:54:13;27.10;98.20
306;DHT22;137;48.578;9.180;2022-08-18T12:56:40;27.20;98.20
306;DHT22;137;48.578;9.180;2022-08-18T12:59:09;27.40;98.20
306;DHT22;137;48.578;9.180;2022-08-18T13:01:38;27.50;98.20
306;DHT22;137;48.578;9.180;2022-08-18T13:04:06;27.80;98.20
306;DHT22;137;48.578;9.180;2022-08-18T13:06:36;28.40;98.20
306;DHT22;137;48.578;9.180;2022-08-18T13:09:03;28.20;98.20
306;DHT22;137;48.578;9.180;2022-08-18T13:11:30;28.00;98.20
306;DHT22;137;48.578;9.180;2022-08-18T13:13:57;28.00;98.20
306;DHT22;137;48.578;9.180;2022-08-18T13:16:26;28.10;98.20
306;DHT22;137;48.578;9.180;2022-08-18T13:18:55;28.00;98.20
306;DHT22;137;48.578;9.180;2022-08-18T13:21:21;27.80;98.20
306;DHT22;137;48.578;9.180;2022-08-18T13:23:48;28.20;98.20
306;DHT22;137;48.578;9.180;2022-08-18T13:26:20;28.80;98.20
306;DHT22;137;48.578;9.180;2022-08-18T13:28:50;28.90;98.20
306;DHT22;137;48.578;9.180;2022-08-18T13:31:16;29.00;98.20
306;DHT22;137;48.578;9.180;2022-08-18T13:33:43;28.80;98.20
306;DHT22;137;48.578;9.180;2022-08-18T13:36:12;28.70;98.20
306;DHT22;137;48.578;9.180;2022-08-18T13:38:38;28.60;98.20
306;DHT22;137;48.578;9.180;2022-08-18T13:41:07;28.40;98.20
306;DHT22;137;48.578;9.180;2022-08-18T13:43:36;28.50;98.20
306;DHT22;137;48.578;9.180;2022-08-18T13:46:04;28.40;98.20
306;DHT22;137;48.578;9.180;2022-08-18T13:48:31;28.60;98.20
306;DHT22;137;48.578;9.180;2022-08-18T13:50:59;28.90;98.20
306;DHT22;137;48.578;9.180;2022-08-18T13:53:29;28.80;98.20
306;DHT22;137;48.578;9.180;2022-08-18T13:55:56;29.10;98.20
306;DHT22;137;48.578;9.180;2022-08-18T13:58:23;29.20;98.20
306;DHT22;137;48.578;9.180;2022-08-18T14:00:54;28.80;98.20
306;DHT22;137;48.578;9.180;2022-08-18T14:03:21;28.50;98.20
306;DHT22;137;48.578;9.180;2022-08-18T14:05:48;28.20;98.20
306;DHT22;137;48.578;9.180;2022-08-18T14:08:15;28.20;98.20
306;DHT22;137;48.578;9.180;2022-08-18T14:10:51;28.30;98.20
306;DHT22;137;48.578;9.180;2022-08-18T14:13:19;27.90;98.20
306;DHT22;137;48.578;9.180;2022-08-18T14:15:46;27.70;98.20
306;DHT22;137;48.578;9.180;2022-08-18T14:18:14;27.40;98.20
306;DHT22;137;48.578;9.180;2022-08-18T14:20:41;27.30;98.20
306;DHT22;137;48.578;9.180;2022-08-18T14:23:25;27.30;98.20
306;DHT22;137;48.578;9.180;2022-08-18T14:26:22;27.50;98.20
306;DHT22;137;48.578;9.180;2022-08-18T14:29:06;27.50;98.20
306;DHT22;137;48.578;9.180;2022-08-18T14:31:34;27.60;98.20
306;DHT22;137;48.578;9.180;2022-08-18T14:34:00;27.70;98.20
306;DHT22;137;48.578;9.180;2022-08-18T14:36:27;27.90;98.20
306;DHT22;137;48.578;9.180;2022-08-18T14:38:54;28.00;98.20
306;DHT22;137;48.578;9.180;2022-08-18T14:41:23;27.80;98.20
306;DHT22;137;48.578;9.180;2022-08-18T14:43:49;27.50;98.20
306;DHT22;137;48.578;9.180;2022-08-18T14:46:17;27.70;98.20
306;DHT22;137;48.578;9.180;2022-08-18T14:48:45;27.90;98.20
306;DHT22;137;48.578;9.180;2022-08-18T14:51:12;28.40;98.20
306;DHT22;137;48.578;9.180;2022-08-18T14:53:39;28.40;98.20
306;DHT22;137;48.578;9.180;2022-08-18T14:56:06;28.50;98.20
306;DHT22;137;48.578;9.180;2022-08-18T14:58:34;28.80;98.20
306;DHT22;137;48.578;9.180;2022-08-18T15:01:04;28.80;98.20
306;DHT22;137;48.578;9.180;2022-08-18T15:03:33;28.80;98.20
306;DHT22;137;48.578;9.180;2022-08-18T15:06:01;28.60;98.20
306;DHT22;137;48.578;9.180;2022-08-18T15:08:29;28.70;98.20
306;DHT22;137;48.578;9.180;2022-08-18T15:10:57;28.90;98.20
306;DHT22;137;48.578;9.180;2022-08-18T15:13:24;28.90;98.20
306;DHT22;137;48.578;9.180;2022-08-18T15:15:52;28.80;98.20
306;DHT22;137;48.578;9.180;2022-08-18T15:18:20;28.70;98.20
306;DHT22;137;48.578;9.180;2022-08-18T15:20:48;28.50;98.20
306;DHT22;137;48.578;9.180;2022-08-18T15:23:32;28.60;98.20
306;DHT22;137;48.578;9.180;2022-08-18T15:26:18;28.40;98.20
306;DHT22;137;48.578;9.180;2022-08-18T15:28:47;28.30;98.20
306;DHT22;137;48.578;9.180;2022-08-18T15:31:15;28.30;98.20
306;DHT22;137;48.578;9.180;2022-08-18T15:33:42;28.20;98.20
306;DHT22;137;48.578;9.180;2022-08-18T15:36:09;28.10;98.20
306;DHT22;137;48.578;9.180;2022-08-18T15:38:36;28.00;98.20
306;DHT22;137;48.578;9.180;2022-08-18T15:41:02;28.00;98.20
306;DHT22;137;48.578;9.180;2022-08-18T15:43:30;28.20;98.20
306;DHT22;137;48.578;9.180;2022-08-18T15:45:59;28.20;98.20
306;DHT22;137;48.578;9.180;2022-08-18T15:48:27;28.30;98.20
306;DHT22;137;48.578;9.180;2022-08-18T15:50:54;28.40;98.20
306;DHT22;137;48.578;9.180;2022-08-18T15:53:23;28.60;98.20
306;DHT22;137;48.578;9.180;2022-08-18T15:55:51;28.70;98.20
306;DHT22;137;48.578;9.180;2022-08-18T15:58:18;28.60;98.20
306;DHT22;137;48.578;9.180;2022-08-18T16:00:46;28.50;98.20
306;DHT22;137;48.578;9.180;2022-08-18T16:03:15;28.50;98.20
306;DHT22;137;48.578;9.180;2022-08-18T16:05:48;28.50;98.20
306;DHT22;137;48.578;9.180;2022-08-18T16:08:17;28.50;98.20
306;DHT22;137;48.578;9.180;2022-08-18T16:10:44;28.40;98.20
306;DHT22;137;48.578;9.180;2022-08-18T16:13:11;28.20;98.20
306;DHT22;137;48.578;9.180;2022-08-18T16:15:40;28.00;98.20
306;DHT22;137;48.578;9.180;2022-08-18T16:18:08;28.00;98.20
306;DHT22;137;48.578;9.180;2022-08-18T16:20:36;27.90;98.20
306;DHT22;137;48.578;9.180;2022-08-18T16:23:05;27.70;98.20
306;DHT22;137;48.578;9.180;2022-08-18T16:25:32;27.50;98.20
306;DHT22;137;48.578;9.180;2022-08-18T16:27:59;27.30;98.20
306;DHT22;137;48.578;9.180;2022-08-18T16:30:28;27.30;98.20
306;DHT22;137;48.578;9.180;2022-08-18T16:32:59;27.20;98.20
306;DHT22;137;48.578;9.180;2022-08-18T16:35:27;27.10;98.20
306;DHT22;137;48.578;9.180;2022-08-18T16:37:54;27.10;98.20
306;DHT22;137;48.578;9.180;2022-08-18T16:40:22;27.10;98.20
306;DHT22;137;48.578;9.180;2022-08-18T16:42:53;26.90;98.20
306;DHT22;137;48.578;9.180;2022-08-18T16:45:20;26.90;98.20
306;DHT22;137;48.578;9.180;2022-08-18T16:47:47;26.90;98.20
306;DHT22;137;48.578;9.180;2022-08-18T16:50:15;26.80;98.20
306;DHT22;137;48.578;9.180;2022-08-18T16:52:42;26.90;98.20
306;DHT22;137;48.578;9.180;2022-08-18T16:55:11;26.90;98.20
306;DHT22;137;48.578;9.180;2022-08-18T16:57:40;26.90;98.20
306;DHT22;137;48.578;9.180;2022-08-18T17:00:26;26.80;98.20
306;DHT22;137;48.578;9.180;2022-08-18T17:03:10;26.60;98.20
306;DHT22;137;48.578;9.180;2022-08-18T17:05:59;26.50;98.20
306;DHT22;137;48.578;9.180;2022-08-18T17:08:26;26.30;98.20
306;DHT22;137;48.578;9.180;2022-08-18T17:10:53;26.20;98.20
306;DHT22;137;48.578;9.180;2022-08-18T17:13:22;26.00;98.20
306;DHT22;137;48.578;9.180;2022-08-18T17:15:49;26.00;98.20
306;DHT22;137;48.578;9.180;2022-08-18T17:18:16;25.80;98.20
306;DHT22;137;48.578;9.180;2022-08-18T17:20:44;25.70;98.20
306;DHT22;137;48.578;9.180;2022-08-18T17:23:11;25.60;98.20
306;DHT22;137;48.578;9.180;2022-08-18T17:25:38;25.50;98.20